CES909 ZSPD-PHNL
Flight info
| Callsign | CES909 |
|---|---|
| Flight time | N/A |
| Altitude | 41000 |
| Route | LAM81D LAMEN A593 SADLI Y590 BEDAR Y591 FUE Y23 KASTE Y81 TASOT Y57 LIGNI Y816 IPROS Y830 LAPIL OTR13 SEALS DCT 35N150E 35N155E 35N160E 34N165E 32N170E 30N175E 29N180E 28N175W 25N170W 22N165W DCT BRIUN DCT KATHS OPACA4 |
| Aircraft | A359/H-SDE2E3GHIJ3J4J5LM1ORWXY/LB1D1 |
Departure
| Time | 2026-05-04 00:57 |
|---|---|
| Airport | Shanghai Pudong International Airport (ZSPD) |
Arrival
| Time | N/A |
|---|---|
| Airport | Daniel K. Inouye International Airport (PHNL) |
| Time | Latitude | Longitude | Altitude | Speed | Heading |
|---|---|---|---|---|---|
| 2026-05-04 00:44 | 31.14674 | 121.79821 | 29 ft | 0 kts | 72° |
| 2026-05-04 00:45 | 31.14673 | 121.79820 | 29 ft | 1 kts | 72° |
| 2026-05-04 00:46 | 31.14669 | 121.79805 | 29 ft | 1 kts | 72° |
| 2026-05-04 00:46 | 31.14668 | 121.79798 | 28 ft | 1 kts | 72° |
| 2026-05-04 00:46 | 31.14665 | 121.79788 | 28 ft | 1 kts | 72° |
| 2026-05-04 00:46 | 31.14663 | 121.79783 | 28 ft | 0 kts | 72° |
| 2026-05-04 00:47 | 31.14660 | 121.79771 | 28 ft | 3 kts | 72° |
| 2026-05-04 00:47 | 31.14653 | 121.79750 | 27 ft | 3 kts | 40° |
| 2026-05-04 00:47 | 31.14635 | 121.79738 | 27 ft | 3 kts | 360° |
| 2026-05-04 00:47 | 31.14628 | 121.79739 | 28 ft | 0 kts | 347° |
| 2026-05-04 00:50 | 31.14628 | 121.79738 | 28 ft | 1 kts | 347° |
| 2026-05-04 00:50 | 31.14655 | 121.79723 | 28 ft | 8 kts | 334° |
| 2026-05-04 00:50 | 31.14732 | 121.79683 | 29 ft | 15 kts | 338° |
| 2026-05-04 00:50 | 31.14835 | 121.79643 | 29 ft | 16 kts | 343° |
| 2026-05-04 00:51 | 31.14923 | 121.79575 | 29 ft | 15 kts | 291° |
| 2026-05-04 00:51 | 31.14907 | 121.79462 | 29 ft | 14 kts | 252° |
| 2026-05-04 00:51 | 31.14881 | 121.79349 | 29 ft | 13 kts | 272° |
| 2026-05-04 00:51 | 31.14919 | 121.79278 | 29 ft | 10 kts | 329° |
| 2026-05-04 00:52 | 31.15017 | 121.79237 | 29 ft | 21 kts | 342° |
| 2026-05-04 00:52 | 31.15164 | 121.79179 | 29 ft | 23 kts | 341° |
| 2026-05-04 00:52 | 31.15284 | 121.79135 | 29 ft | 23 kts | 342° |
| 2026-05-04 00:53 | 31.15362 | 121.79106 | 29 ft | 23 kts | 342° |
| 2026-05-04 00:53 | 31.15519 | 121.79050 | 28 ft | 24 kts | 343° |
| 2026-05-04 00:53 | 31.15672 | 121.78991 | 28 ft | 20 kts | 340° |
| 2026-05-04 00:53 | 31.15807 | 121.78937 | 28 ft | 21 kts | 340° |
| 2026-05-04 00:54 | 31.15939 | 121.78889 | 29 ft | 14 kts | 342° |
| 2026-05-04 00:54 | 31.16024 | 121.78856 | 29 ft | 13 kts | 342° |
| 2026-05-04 00:54 | 31.16114 | 121.78820 | 29 ft | 14 kts | 333° |
| 2026-05-04 00:54 | 31.16141 | 121.78726 | 29 ft | 12 kts | 252° |
| 2026-05-04 00:55 | 31.16105 | 121.78634 | 29 ft | 13 kts | 224° |
| 2026-05-04 00:55 | 31.16041 | 121.78633 | 28 ft | 5 kts | 163° |
| 2026-05-04 00:55 | 31.16040 | 121.78633 | 28 ft | 0 kts | 163° |
| 2026-05-04 00:56 | 31.16039 | 121.78633 | 28 ft | 2 kts | 163° |
| 2026-05-04 00:56 | 31.15870 | 121.78697 | 28 ft | 56 kts | 161° |
| 2026-05-04 00:56 | 31.15301 | 121.78910 | 27 ft | 113 kts | 161° |
| 2026-05-04 00:57 | 31.14399 | 121.79249 | 29 ft | 160 kts | 162° |
| 2026-05-04 00:57 | 31.13328 | 121.79655 | 622 ft | 155 kts | 164° |
| 2026-05-04 00:57 | 31.12277 | 121.80045 | 929 ft | 170 kts | 164° |
| 2026-05-04 00:57 | 31.11104 | 121.80454 | 1280 ft | 186 kts | 167° |
| 2026-05-04 00:58 | 31.09781 | 121.80888 | 1555 ft | 209 kts | 168° |
| 2026-05-04 00:58 | 31.08306 | 121.81368 | 1799 ft | 234 kts | 169° |
| 2026-05-04 00:58 | 31.06645 | 121.81883 | 2164 ft | 254 kts | 167° |
| 2026-05-04 00:58 | 31.04922 | 121.82480 | 2728 ft | 265 kts | 165° |
| 2026-05-04 00:59 | 31.03107 | 121.83111 | 2915 ft | 274 kts | 165° |
| 2026-05-04 00:59 | 31.01281 | 121.83741 | 2997 ft | 272 kts | 165° |
| 2026-05-04 00:59 | 30.99468 | 121.84405 | 3000 ft | 274 kts | 162° |
| 2026-05-04 00:59 | 30.97690 | 121.85193 | 2987 ft | 274 kts | 160° |
| 2026-05-04 01:00 | 30.95917 | 121.86022 | 3000 ft | 274 kts | 159° |
| 2026-05-04 01:00 | 30.94153 | 121.86864 | 2993 ft | 274 kts | 159° |
| 2026-05-04 01:00 | 30.92382 | 121.87701 | 2994 ft | 275 kts | 160° |
| 2026-05-04 01:00 | 30.90567 | 121.88390 | 3004 ft | 273 kts | 165° |
| 2026-05-04 01:01 | 30.88750 | 121.88962 | 2876 ft | 273 kts | 166° |
| 2026-05-04 01:01 | 30.86930 | 121.89594 | 2987 ft | 274 kts | 164° |
| 2026-05-04 01:01 | 30.85110 | 121.90272 | 2990 ft | 274 kts | 163° |
| 2026-05-04 01:01 | 30.83332 | 121.91012 | 3169 ft | 273 kts | 156° |
| 2026-05-04 01:02 | 30.81794 | 121.92326 | 3627 ft | 278 kts | 129° |
| 2026-05-04 01:02 | 30.80883 | 121.94291 | 4265 ft | 278 kts | 102° |
| 2026-05-04 01:02 | 30.80810 | 121.96493 | 4976 ft | 272 kts | 75° |
| 2026-05-04 01:02 | 30.81430 | 121.98556 | 5679 ft | 270 kts | 63° |
| 2026-05-04 01:03 | 30.82089 | 122.00618 | 6386 ft | 274 kts | 65° |
| 2026-05-04 01:03 | 30.82708 | 122.02729 | 7058 ft | 277 kts | 66° |
| 2026-05-04 01:03 | 30.83320 | 122.04871 | 7726 ft | 281 kts | 67° |
| 2026-05-04 01:03 | 30.83934 | 122.07049 | 8410 ft | 285 kts | 68° |
| 2026-05-04 01:04 | 30.84552 | 122.09259 | 9094 ft | 290 kts | 68° |
| 2026-05-04 01:04 | 30.85179 | 122.11508 | 9792 ft | 294 kts | 69° |
| 2026-05-04 01:04 | 30.85808 | 122.13769 | 10325 ft | 304 kts | 69° |
| 2026-05-04 01:04 | 30.86478 | 122.16171 | 10592 ft | 322 kts | 69° |
| 2026-05-04 01:05 | 30.87190 | 122.18730 | 10847 ft | 341 kts | 69° |
| 2026-05-04 01:05 | 30.87937 | 122.21422 | 11111 ft | 358 kts | 69° |
| 2026-05-04 01:05 | 30.88717 | 122.24238 | 11358 ft | 374 kts | 69° |
| 2026-05-04 01:05 | 30.89543 | 122.27158 | 11699 ft | 384 kts | 67° |
| 2026-05-04 01:06 | 30.90820 | 122.29884 | 12213 ft | 384 kts | 50° |
| 2026-05-04 01:06 | 30.92524 | 122.32306 | 12736 ft | 388 kts | 46° |
| 2026-05-04 01:06 | 30.94295 | 122.34697 | 13263 ft | 393 kts | 46° |
| 2026-05-04 01:06 | 30.96092 | 122.37125 | 13793 ft | 398 kts | 46° |
| 2026-05-04 01:07 | 30.97886 | 122.39610 | 14254 ft | 404 kts | 49° |
| 2026-05-04 01:07 | 30.99329 | 122.42455 | 14712 ft | 413 kts | 65° |
| 2026-05-04 01:07 | 30.99996 | 122.45736 | 15192 ft | 421 kts | 84° |
| 2026-05-04 01:07 | 31.00084 | 122.49172 | 15682 ft | 426 kts | 89° |
| 2026-05-04 01:08 | 31.00070 | 122.52638 | 16180 ft | 430 kts | 89° |
| 2026-05-04 01:08 | 31.00054 | 122.56144 | 16696 ft | 434 kts | 89° |
| 2026-05-04 01:08 | 31.00045 | 122.59632 | 17189 ft | 438 kts | 89° |
| 2026-05-04 01:08 | 31.00040 | 122.63196 | 17671 ft | 443 kts | 89° |
| 2026-05-04 01:09 | 31.00038 | 122.66825 | 18086 ft | 449 kts | 89° |
| 2026-05-04 01:09 | 31.00037 | 122.70482 | 18563 ft | 453 kts | 89° |
| 2026-05-04 01:09 | 31.00035 | 122.74175 | 18959 ft | 458 kts | 89° |
| 2026-05-04 01:09 | 31.00033 | 122.77909 | 19345 ft | 463 kts | 89° |
| 2026-05-04 01:10 | 31.00030 | 122.81682 | 19702 ft | 467 kts | 90° |
| 2026-05-04 01:10 | 31.00026 | 122.85468 | 19837 ft | 468 kts | 90° |
| 2026-05-04 01:10 | 31.00021 | 122.89274 | 19843 ft | 470 kts | 90° |
| 2026-05-04 01:10 | 31.00017 | 122.93084 | 19851 ft | 471 kts | 90° |
| 2026-05-04 01:11 | 31.00222 | 122.96884 | 19847 ft | 470 kts | 81° |
| 2026-05-04 01:11 | 31.01021 | 123.00563 | 19849 ft | 468 kts | 67° |
| 2026-05-04 01:11 | 31.02456 | 123.03938 | 19852 ft | 463 kts | 54° |
| 2026-05-04 01:11 | 31.04273 | 123.07039 | 19854 ft | 462 kts | 51° |
| 2026-05-04 01:12 | 31.06132 | 123.10042 | 19876 ft | 463 kts | 51° |
| 2026-05-04 01:12 | 31.08026 | 123.13099 | 20168 ft | 467 kts | 51° |
| 2026-05-04 01:12 | 31.09930 | 123.16185 | 20620 ft | 470 kts | 51° |
| 2026-05-04 01:12 | 31.11855 | 123.19315 | 20940 ft | 476 kts | 51° |
| 2026-05-04 01:13 | 31.13798 | 123.22483 | 21292 ft | 481 kts | 51° |
| 2026-05-04 01:13 | 31.15752 | 123.25676 | 21659 ft | 486 kts | 51° |
| 2026-05-04 01:13 | 31.17726 | 123.28906 | 21993 ft | 491 kts | 51° |
| 2026-05-04 01:13 | 31.19719 | 123.32170 | 22340 ft | 496 kts | 51° |
| 2026-05-04 01:14 | 31.21733 | 123.35472 | 22697 ft | 500 kts | 51° |
| 2026-05-04 01:14 | 31.23739 | 123.38764 | 23025 ft | 505 kts | 51° |
| 2026-05-04 01:14 | 31.25784 | 123.42124 | 23446 ft | 508 kts | 51° |
| 2026-05-04 01:14 | 31.27841 | 123.45508 | 23806 ft | 512 kts | 51° |
| 2026-05-04 01:15 | 31.29915 | 123.48919 | 24076 ft | 517 kts | 51° |
| 2026-05-04 01:15 | 31.32005 | 123.52360 | 24392 ft | 520 kts | 51° |
| 2026-05-04 01:15 | 31.34101 | 123.55818 | 24735 ft | 524 kts | 52° |
| 2026-05-04 01:15 | 31.36229 | 123.59304 | 25062 ft | 527 kts | 51° |
| 2026-05-04 01:16 | 31.38374 | 123.62803 | 25393 ft | 531 kts | 51° |
| 2026-05-04 01:16 | 31.40528 | 123.66321 | 25761 ft | 534 kts | 51° |
| 2026-05-04 01:16 | 31.42702 | 123.69879 | 26076 ft | 538 kts | 51° |
| 2026-05-04 01:16 | 31.44858 | 123.73411 | 26353 ft | 543 kts | 52° |
| 2026-05-04 01:17 | 31.47057 | 123.77018 | 26690 ft | 546 kts | 52° |
| 2026-05-04 01:17 | 31.49268 | 123.80650 | 27023 ft | 549 kts | 52° |
| 2026-05-04 01:17 | 31.51492 | 123.84305 | 27336 ft | 553 kts | 52° |
| 2026-05-04 01:17 | 31.53733 | 123.87993 | 27649 ft | 557 kts | 52° |
| 2026-05-04 01:18 | 31.55986 | 123.91705 | 27955 ft | 560 kts | 52° |
| 2026-05-04 01:18 | 31.58245 | 123.95434 | 28229 ft | 564 kts | 53° |
| 2026-05-04 01:18 | 31.60322 | 123.99363 | 28508 ft | 569 kts | 62° |
| 2026-05-04 01:18 | 31.61817 | 124.03664 | 28799 ft | 571 kts | 73° |
| 2026-05-04 01:19 | 31.62973 | 124.08139 | 29099 ft | 574 kts | 76° |
| 2026-05-04 01:19 | 31.64010 | 124.12667 | 29390 ft | 576 kts | 77° |
| 2026-05-04 01:19 | 31.64994 | 124.17240 | 29673 ft | 579 kts | 78° |
| 2026-05-04 01:19 | 31.65968 | 124.21840 | 29913 ft | 581 kts | 78° |
| 2026-05-04 01:20 | 31.66950 | 124.26455 | 30180 ft | 584 kts | 78° |
| 2026-05-04 01:20 | 31.67949 | 124.31087 | 30411 ft | 587 kts | 78° |
| 2026-05-04 01:20 | 31.68966 | 124.35745 | 30609 ft | 590 kts | 78° |
| 2026-05-04 01:20 | 31.69981 | 124.40354 | 30933 ft | 589 kts | 78° |
| 2026-05-04 01:21 | 31.71025 | 124.45076 | 31223 ft | 590 kts | 78° |
| 2026-05-04 01:21 | 31.72044 | 124.49689 | 31481 ft | 591 kts | 78° |
| 2026-05-04 01:21 | 31.73075 | 124.54363 | 31753 ft | 591 kts | 78° |
| 2026-05-04 01:21 | 31.74102 | 124.59034 | 32053 ft | 591 kts | 78° |
| 2026-05-04 01:22 | 31.75129 | 124.63718 | 32343 ft | 591 kts | 78° |
| 2026-05-04 01:22 | 31.76153 | 124.68401 | 32629 ft | 592 kts | 78° |
| 2026-05-04 01:22 | 31.77175 | 124.73084 | 32925 ft | 592 kts | 78° |
| 2026-05-04 01:22 | 31.78196 | 124.77777 | 33072 ft | 595 kts | 78° |
| 2026-05-04 01:23 | 31.79221 | 124.82493 | 33339 ft | 595 kts | 78° |
| 2026-05-04 01:23 | 31.80243 | 124.87206 | 33619 ft | 595 kts | 78° |
| 2026-05-04 01:23 | 31.81264 | 124.91920 | 33876 ft | 595 kts | 78° |
| 2026-05-04 01:23 | 31.82135 | 124.96670 | 34099 ft | 592 kts | 86° |
| 2026-05-04 01:24 | 31.82385 | 125.01455 | 34265 ft | 584 kts | 98° |
| 2026-05-04 01:24 | 31.81983 | 125.06188 | 34380 ft | 578 kts | 105° |
| 2026-05-04 01:24 | 31.81336 | 125.10841 | 34566 ft | 576 kts | 108° |
| 2026-05-04 01:24 | 31.80597 | 125.15478 | 34773 ft | 575 kts | 109° |
| 2026-05-04 01:25 | 31.79826 | 125.20034 | 34961 ft | 575 kts | 109° |
| 2026-05-04 01:25 | 31.79034 | 125.24644 | 35147 ft | 576 kts | 109° |
| 2026-05-04 01:25 | 31.78240 | 125.29278 | 35226 ft | 579 kts | 109° |
| 2026-05-04 01:25 | 31.77452 | 125.33928 | 35366 ft | 580 kts | 109° |
| 2026-05-04 01:26 | 31.76674 | 125.38584 | 35578 ft | 580 kts | 109° |
| 2026-05-04 01:26 | 31.75898 | 125.43253 | 35770 ft | 580 kts | 109° |
| 2026-05-04 01:26 | 31.75128 | 125.47902 | 35949 ft | 580 kts | 109° |
| 2026-05-04 01:26 | 31.74356 | 125.52555 | 36137 ft | 581 kts | 109° |
| 2026-05-04 01:27 | 31.73580 | 125.57220 | 36261 ft | 582 kts | 109° |
| 2026-05-04 01:27 | 31.72880 | 125.61904 | 36395 ft | 588 kts | 103° |
| 2026-05-04 01:27 | 31.72716 | 125.66742 | 36539 ft | 598 kts | 91° |
| 2026-05-04 01:27 | 31.73263 | 125.71551 | 36668 ft | 604 kts | 80° |
| 2026-05-04 01:28 | 31.74192 | 125.76433 | 36786 ft | 606 kts | 79° |
| 2026-05-04 01:28 | 31.75210 | 125.81177 | 36925 ft | 607 kts | 77° |
| 2026-05-04 01:28 | 31.76297 | 125.85965 | 37080 ft | 607 kts | 77° |
| 2026-05-04 01:28 | 31.77403 | 125.90764 | 37226 ft | 607 kts | 77° |
| 2026-05-04 01:29 | 31.78501 | 125.95554 | 37363 ft | 607 kts | 77° |
| 2026-05-04 01:29 | 31.79587 | 126.00360 | 37507 ft | 607 kts | 77° |
| 2026-05-04 01:29 | 31.80653 | 126.05173 | 37663 ft | 607 kts | 77° |
| 2026-05-04 01:30 | 31.82750 | 126.14813 | 37852 ft | 609 kts | 77° |
| 2026-05-04 01:30 | 31.83794 | 126.19643 | 37977 ft | 609 kts | 77° |
| 2026-05-04 01:30 | 31.84833 | 126.24458 | 38097 ft | 609 kts | 77° |
| 2026-05-04 01:30 | 31.85878 | 126.29293 | 38220 ft | 608 kts | 78° |
| 2026-05-04 01:31 | 31.86909 | 126.34071 | 38364 ft | 607 kts | 78° |
| 2026-05-04 01:31 | 31.87947 | 126.38889 | 38473 ft | 608 kts | 78° |
| 2026-05-04 01:31 | 31.88983 | 126.43704 | 38619 ft | 608 kts | 78° |
| 2026-05-04 01:32 | 31.91064 | 126.53388 | 38680 ft | 610 kts | 78° |
| 2026-05-04 01:32 | 31.92127 | 126.58228 | 38837 ft | 609 kts | 77° |
| 2026-05-04 01:32 | 31.93197 | 126.63039 | 38939 ft | 608 kts | 77° |
| 2026-05-04 01:33 | 31.94981 | 126.71055 | 39101 ft | 607 kts | 77° |
| 2026-05-04 01:33 | 31.96404 | 126.77496 | 39213 ft | 606 kts | 77° |
| 2026-05-04 01:33 | 31.97444 | 126.82229 | 39303 ft | 605 kts | 77° |
| 2026-05-04 01:34 | 31.99204 | 126.90289 | 39382 ft | 608 kts | 77° |
| 2026-05-04 01:34 | 32.01640 | 127.01501 | 39521 ft | 607 kts | 77° |
| 2026-05-04 01:35 | 32.03406 | 127.09582 | 39639 ft | 607 kts | 75° |
| 2026-05-04 01:35 | 32.06445 | 127.18782 | 39745 ft | 606 kts | 66° |
| 2026-05-04 01:35 | 32.08126 | 127.23343 | 39850 ft | 606 kts | 65° |
| 2026-05-04 01:36 | 32.09832 | 127.27870 | 39882 ft | 606 kts | 65° |
| 2026-05-04 01:36 | 32.13279 | 127.36941 | 40024 ft | 604 kts | 65° |
| 2026-05-04 01:37 | 32.16698 | 127.46004 | 40150 ft | 603 kts | 65° |
| 2026-05-04 01:37 | 32.20093 | 127.55063 | 40284 ft | 603 kts | 65° |
| 2026-05-04 01:38 | 32.23455 | 127.64075 | 40352 ft | 603 kts | 65° |
| 2026-05-04 01:38 | 32.26829 | 127.73146 | 40423 ft | 602 kts | 65° |
| 2026-05-04 01:39 | 32.30189 | 127.82202 | 40580 ft | 601 kts | 65° |
| 2026-05-04 01:39 | 32.33542 | 127.91263 | 40625 ft | 601 kts | 65° |
| 2026-05-04 01:40 | 32.36889 | 128.00330 | 40653 ft | 601 kts | 65° |
| 2026-05-04 01:40 | 32.40205 | 128.09338 | 40731 ft | 600 kts | 65° |
| 2026-05-04 01:41 | 32.43536 | 128.18409 | 40798 ft | 600 kts | 65° |
| 2026-05-04 01:41 | 32.46854 | 128.27472 | 40867 ft | 599 kts | 65° |
| 2026-05-04 01:42 | 32.50157 | 128.36516 | 40932 ft | 598 kts | 65° |
| 2026-05-04 01:42 | 32.53438 | 128.45526 | 40994 ft | 599 kts | 65° |
| 2026-05-04 01:43 | 32.56730 | 128.54589 | 40987 ft | 599 kts | 65° |
| 2026-05-04 01:43 | 32.60022 | 128.63678 | 40999 ft | 599 kts | 65° |
| 2026-05-04 01:44 | 32.63305 | 128.72764 | 41052 ft | 599 kts | 65° |
| 2026-05-04 01:44 | 32.66501 | 128.81878 | 41042 ft | 599 kts | 72° |
| 2026-05-04 01:45 | 32.68719 | 128.91433 | 41034 ft | 599 kts | 77° |
| 2026-05-04 01:45 | 32.71654 | 129.05796 | 41080 ft | 600 kts | 77° |
| 2026-05-04 01:46 | 32.73592 | 129.15445 | 41065 ft | 601 kts | 77° |
| 2026-05-04 01:46 | 32.75547 | 129.25109 | 41064 ft | 601 kts | 77° |
| 2026-05-04 01:47 | 32.77504 | 129.34780 | 41061 ft | 602 kts | 77° |
| 2026-05-04 01:47 | 32.79436 | 129.44365 | 41059 ft | 602 kts | 77° |
| 2026-05-04 01:48 | 32.81380 | 129.54055 | 41052 ft | 603 kts | 77° |
| 2026-05-04 01:48 | 32.83305 | 129.63694 | 41030 ft | 603 kts | 78° |
| 2026-05-04 01:49 | 32.85192 | 129.73414 | 41029 ft | 602 kts | 80° |
| 2026-05-04 01:49 | 32.86617 | 129.83196 | 41013 ft | 600 kts | 83° |
| 2026-05-04 01:50 | 32.87903 | 129.93024 | 41022 ft | 601 kts | 83° |
| 2026-05-04 01:50 | 32.89256 | 130.02838 | 41020 ft | 600 kts | 82° |
| 2026-05-04 01:51 | 32.90655 | 130.12627 | 41026 ft | 599 kts | 82° |
| 2026-05-04 01:51 | 32.92051 | 130.22354 | 41032 ft | 600 kts | 82° |
| 2026-05-04 01:52 | 32.93451 | 130.32206 | 41028 ft | 599 kts | 83° |
| 2026-05-04 01:52 | 32.94819 | 130.41927 | 41031 ft | 599 kts | 83° |
| 2026-05-04 01:53 | 32.96187 | 130.51705 | 41018 ft | 598 kts | 83° |
| 2026-05-04 01:53 | 32.97547 | 130.61474 | 41023 ft | 597 kts | 83° |
| 2026-05-04 01:54 | 32.98899 | 130.71241 | 41018 ft | 596 kts | 83° |
| 2026-05-04 01:54 | 33.00240 | 130.80999 | 41020 ft | 597 kts | 83° |
| 2026-05-04 01:55 | 33.01564 | 130.90689 | 41021 ft | 597 kts | 83° |
| 2026-05-04 01:55 | 33.02893 | 131.00464 | 41002 ft | 596 kts | 83° |
| 2026-05-04 01:56 | 33.04210 | 131.10211 | 41005 ft | 595 kts | 83° |
| 2026-05-04 01:56 | 33.05520 | 131.19969 | 40987 ft | 595 kts | 83° |
| 2026-05-04 01:57 | 33.06817 | 131.29704 | 40981 ft | 594 kts | 83° |
| 2026-05-04 01:57 | 33.08102 | 131.39388 | 40968 ft | 595 kts | 84° |
| 2026-05-04 01:58 | 33.09387 | 131.49131 | 40969 ft | 595 kts | 84° |
| 2026-05-04 01:58 | 33.10663 | 131.58884 | 40964 ft | 595 kts | 84° |
| 2026-05-04 01:59 | 33.11930 | 131.68638 | 40963 ft | 594 kts | 84° |
| 2026-05-04 01:59 | 33.13188 | 131.78378 | 40936 ft | 594 kts | 84° |
| 2026-05-04 02:00 | 33.14437 | 131.88113 | 40962 ft | 593 kts | 84° |
| 2026-05-04 02:00 | 33.15679 | 131.97846 | 40959 ft | 593 kts | 84° |
| 2026-05-04 02:01 | 33.16913 | 132.07571 | 40959 ft | 592 kts | 84° |
| 2026-05-04 02:01 | 33.18135 | 132.17246 | 40953 ft | 593 kts | 84° |
| 2026-05-04 02:02 | 33.19354 | 132.26976 | 40951 ft | 593 kts | 84° |
| 2026-05-04 02:02 | 33.20561 | 132.36699 | 40948 ft | 592 kts | 84° |
| 2026-05-04 02:03 | 33.21764 | 132.46439 | 40944 ft | 591 kts | 84° |
| 2026-05-04 02:03 | 33.22956 | 132.56151 | 40941 ft | 591 kts | 84° |
| 2026-05-04 02:04 | 33.24141 | 132.65874 | 40947 ft | 591 kts | 85° |
| 2026-05-04 02:04 | 33.25324 | 132.75575 | 40934 ft | 588 kts | 85° |
| 2026-05-04 02:05 | 33.26486 | 132.85178 | 40920 ft | 587 kts | 85° |
| 2026-05-04 02:05 | 33.27640 | 132.94856 | 40918 ft | 588 kts | 85° |
| 2026-05-04 02:06 | 33.28779 | 133.04533 | 40912 ft | 589 kts | 85° |
| 2026-05-04 02:06 | 33.29920 | 133.14238 | 40924 ft | 587 kts | 85° |
| 2026-05-04 02:07 | 33.31058 | 133.23897 | 40894 ft | 587 kts | 85° |
| 2026-05-04 02:07 | 33.32175 | 133.33524 | 40898 ft | 587 kts | 85° |
| 2026-05-04 02:08 | 33.33291 | 133.43205 | 40838 ft | 588 kts | 85° |
| 2026-05-04 02:08 | 33.34402 | 133.52897 | 40868 ft | 588 kts | 85° |
| 2026-05-04 02:09 | 33.35506 | 133.62591 | 40852 ft | 589 kts | 85° |
| 2026-05-04 02:09 | 33.36602 | 133.72291 | 40847 ft | 587 kts | 85° |
| 2026-05-04 02:10 | 33.37683 | 133.81924 | 40850 ft | 586 kts | 85° |
| 2026-05-04 02:10 | 33.38761 | 133.91601 | 40859 ft | 586 kts | 86° |
| 2026-05-04 02:11 | 33.39830 | 134.01264 | 40865 ft | 585 kts | 86° |
| 2026-05-04 02:11 | 33.40890 | 134.10923 | 40858 ft | 584 kts | 86° |
| 2026-05-04 02:12 | 33.41944 | 134.20574 | 40869 ft | 583 kts | 86° |
| 2026-05-04 02:12 | 33.42977 | 134.30128 | 40856 ft | 582 kts | 86° |
| 2026-05-04 02:13 | 33.44010 | 134.39756 | 40850 ft | 582 kts | 86° |
| 2026-05-04 02:13 | 33.45034 | 134.49359 | 40846 ft | 582 kts | 86° |
| 2026-05-04 02:14 | 33.46058 | 134.58991 | 40852 ft | 583 kts | 86° |
| 2026-05-04 02:14 | 33.47069 | 134.68635 | 40840 ft | 583 kts | 87° |
| 2026-05-04 02:15 | 33.48070 | 134.78270 | 40849 ft | 582 kts | 87° |
| 2026-05-04 02:15 | 33.49064 | 134.87894 | 40877 ft | 582 kts | 87° |
| 2026-05-04 02:16 | 33.50045 | 134.97466 | 40849 ft | 583 kts | 87° |
| 2026-05-04 02:16 | 33.51036 | 135.07117 | 40832 ft | 582 kts | 87° |
| 2026-05-04 02:17 | 33.52009 | 135.16742 | 40825 ft | 581 kts | 87° |
| 2026-05-04 02:17 | 33.52974 | 135.26354 | 40812 ft | 579 kts | 87° |
| 2026-05-04 02:18 | 33.53927 | 135.35921 | 40814 ft | 578 kts | 88° |
| 2026-05-04 02:18 | 33.54873 | 135.45492 | 40806 ft | 577 kts | 88° |
| 2026-05-04 02:19 | 33.55804 | 135.54976 | 40809 ft | 576 kts | 88° |
| 2026-05-04 02:19 | 33.56734 | 135.64535 | 40815 ft | 576 kts | 88° |
| 2026-05-04 02:20 | 33.57506 | 135.72519 | 40816 ft | 575 kts | 88° |
| 2026-05-04 02:20 | 33.58415 | 135.81978 | 40806 ft | 574 kts | 88° |
| 2026-05-04 02:21 | 33.59470 | 135.93086 | 40810 ft | 573 kts | 88° |
| 2026-05-04 02:21 | 33.60213 | 136.00987 | 40802 ft | 573 kts | 88° |
| 2026-05-04 02:22 | 33.61102 | 136.10492 | 40795 ft | 572 kts | 88° |
| 2026-05-04 02:22 | 33.61982 | 136.19971 | 40794 ft | 572 kts | 88° |
| 2026-05-04 02:23 | 33.62854 | 136.29453 | 40783 ft | 571 kts | 88° |
| 2026-05-04 02:23 | 33.63716 | 136.38901 | 40789 ft | 570 kts | 88° |
| 2026-05-04 02:24 | 33.64571 | 136.48360 | 40785 ft | 570 kts | 88° |
| 2026-05-04 02:24 | 33.65419 | 136.57827 | 40795 ft | 569 kts | 89° |
| 2026-05-04 02:25 | 33.66259 | 136.67284 | 40782 ft | 570 kts | 89° |
| 2026-05-04 02:25 | 33.67094 | 136.76770 | 40782 ft | 571 kts | 89° |
| 2026-05-04 02:26 | 33.67918 | 136.86198 | 40750 ft | 572 kts | 89° |
| 2026-05-04 02:26 | 33.68740 | 136.95688 | 40779 ft | 571 kts | 89° |
| 2026-05-04 02:27 | 33.69555 | 137.05193 | 40782 ft | 570 kts | 89° |
| 2026-05-04 02:27 | 33.70339 | 137.14668 | 40781 ft | 569 kts | 91° |
| 2026-05-04 02:28 | 33.70670 | 137.24126 | 40782 ft | 566 kts | 94° |
| 2026-05-04 02:28 | 33.70823 | 137.33517 | 40782 ft | 566 kts | 94° |
| 2026-05-04 02:29 | 33.71034 | 137.42983 | 40781 ft | 566 kts | 94° |
| 2026-05-04 02:29 | 33.71294 | 137.52433 | 40780 ft | 566 kts | 94° |
| 2026-05-04 02:30 | 33.71563 | 137.61895 | 40786 ft | 566 kts | 94° |
| 2026-05-04 02:30 | 33.71821 | 137.71292 | 40782 ft | 566 kts | 94° |
| 2026-05-04 02:31 | 33.72070 | 137.80750 | 40764 ft | 567 kts | 94° |
| 2026-05-04 02:31 | 33.72312 | 137.90208 | 40761 ft | 566 kts | 94° |
| 2026-05-04 02:32 | 33.72545 | 137.99653 | 40782 ft | 566 kts | 94° |
| 2026-05-04 02:32 | 33.72772 | 138.09105 | 40783 ft | 565 kts | 94° |
| 2026-05-04 02:33 | 33.72991 | 138.18534 | 40766 ft | 565 kts | 94° |
| 2026-05-04 02:33 | 33.73202 | 138.27963 | 40773 ft | 564 kts | 94° |
| 2026-05-04 02:34 | 33.73407 | 138.37379 | 40772 ft | 563 kts | 94° |
| 2026-05-04 02:34 | 33.73833 | 138.46794 | 40768 ft | 568 kts | 84° |
| 2026-05-04 02:35 | 33.74763 | 138.51355 | 40769 ft | 573 kts | 73° |
| 2026-05-04 02:35 | 33.76385 | 138.55727 | 40783 ft | 574 kts | 62° |
| 2026-05-04 02:35 | 33.80394 | 138.64049 | 40767 ft | 575 kts | 59° |
| 2026-05-04 02:36 | 33.84608 | 138.72234 | 40766 ft | 576 kts | 58° |
| 2026-05-04 02:36 | 33.88815 | 138.80440 | 40763 ft | 576 kts | 59° |
| 2026-05-04 02:37 | 33.92985 | 138.88691 | 40759 ft | 576 kts | 59° |
| 2026-05-04 02:37 | 33.97125 | 138.96948 | 40758 ft | 575 kts | 59° |
| 2026-05-04 02:38 | 34.01261 | 139.05214 | 40755 ft | 575 kts | 59° |
| 2026-05-04 02:38 | 34.05363 | 139.13427 | 40735 ft | 576 kts | 60° |
| 2026-05-04 02:39 | 34.09486 | 139.21707 | 40743 ft | 576 kts | 60° |
| 2026-05-04 02:39 | 34.13613 | 139.30014 | 40741 ft | 576 kts | 60° |
| 2026-05-04 02:40 | 34.17724 | 139.38307 | 40737 ft | 576 kts | 60° |
| 2026-05-04 02:40 | 34.21834 | 139.46603 | 40729 ft | 576 kts | 60° |
| 2026-05-04 02:41 | 34.25947 | 139.54924 | 40727 ft | 576 kts | 60° |
| 2026-05-04 02:41 | 34.30017 | 139.63184 | 40726 ft | 575 kts | 60° |
| 2026-05-04 02:42 | 34.34102 | 139.71494 | 40718 ft | 575 kts | 60° |
| 2026-05-04 02:42 | 34.38184 | 139.79819 | 40715 ft | 574 kts | 60° |
| 2026-05-04 02:43 | 34.42260 | 139.88150 | 40698 ft | 574 kts | 60° |
| 2026-05-04 02:43 | 34.46330 | 139.96487 | 40697 ft | 574 kts | 60° |
| 2026-05-04 02:44 | 34.50387 | 140.04818 | 40689 ft | 574 kts | 60° |
| 2026-05-04 02:44 | 34.54450 | 140.13183 | 40689 ft | 574 kts | 60° |
| 2026-05-04 02:45 | 34.58474 | 140.21486 | 40684 ft | 574 kts | 60° |
| 2026-05-04 02:45 | 34.62520 | 140.29855 | 40687 ft | 574 kts | 60° |
| 2026-05-04 02:46 | 34.66562 | 140.38234 | 40689 ft | 574 kts | 60° |
| 2026-05-04 02:46 | 34.69999 | 140.46919 | 40693 ft | 568 kts | 77° |
| 2026-05-04 02:47 | 34.72120 | 140.56149 | 40688 ft | 566 kts | 79° |
| 2026-05-04 02:47 | 34.74001 | 140.65433 | 40696 ft | 566 kts | 80° |
| 2026-05-04 02:48 | 34.75854 | 140.74749 | 40687 ft | 566 kts | 80° |
| 2026-05-04 02:48 | 34.77709 | 140.83989 | 40696 ft | 566 kts | 80° |
| 2026-05-04 02:49 | 34.79590 | 140.93311 | 40695 ft | 566 kts | 80° |
| 2026-05-04 02:49 | 34.81463 | 141.02613 | 40699 ft | 565 kts | 80° |
| 2026-05-04 02:50 | 34.83324 | 141.11907 | 40689 ft | 565 kts | 80° |
| 2026-05-04 02:50 | 34.85176 | 141.21200 | 40690 ft | 564 kts | 80° |
| 2026-05-04 02:51 | 34.87014 | 141.30459 | 40691 ft | 561 kts | 80° |
| 2026-05-04 02:51 | 34.88829 | 141.39644 | 40693 ft | 560 kts | 80° |
| 2026-05-04 02:52 | 34.90645 | 141.48882 | 40691 ft | 561 kts | 80° |
| 2026-05-04 02:52 | 34.92459 | 141.58142 | 40691 ft | 561 kts | 80° |
| 2026-05-04 02:53 | 34.94265 | 141.67400 | 40700 ft | 561 kts | 80° |
| 2026-05-04 02:53 | 34.96063 | 141.76656 | 40697 ft | 561 kts | 80° |
| 2026-05-04 02:54 | 34.97857 | 141.85934 | 40695 ft | 561 kts | 80° |
| 2026-05-04 02:54 | 34.99628 | 141.95129 | 40697 ft | 560 kts | 80° |
| 2026-05-04 02:55 | 35.02286 | 142.09011 | 40697 ft | 560 kts | 80° |
| 2026-05-04 02:56 | 35.04051 | 142.18276 | 40704 ft | 560 kts | 80° |
| 2026-05-04 02:56 | 35.05810 | 142.27553 | 40708 ft | 560 kts | 80° |
| 2026-05-04 02:57 | 35.07555 | 142.36801 | 40683 ft | 560 kts | 79° |
| 2026-05-04 02:57 | 35.09286 | 142.46005 | 40702 ft | 559 kts | 79° |
| 2026-05-04 02:58 | 35.11016 | 142.55258 | 40707 ft | 558 kts | 79° |
| 2026-05-04 02:58 | 35.12738 | 142.64505 | 40707 ft | 558 kts | 79° |
| 2026-05-04 02:59 | 35.14453 | 142.73759 | 40723 ft | 559 kts | 80° |
| 2026-05-04 02:59 | 35.16163 | 142.83024 | 40725 ft | 559 kts | 80° |
| 2026-05-04 03:00 | 35.17856 | 142.92235 | 40728 ft | 559 kts | 80° |
| 2026-05-04 03:00 | 35.19550 | 143.01508 | 40731 ft | 559 kts | 80° |
| 2026-05-04 03:01 | 35.21242 | 143.10799 | 40723 ft | 559 kts | 80° |
| 2026-05-04 03:01 | 35.22925 | 143.20080 | 40740 ft | 558 kts | 80° |
| 2026-05-04 03:02 | 35.24595 | 143.29357 | 40730 ft | 557 kts | 80° |
| 2026-05-04 03:02 | 35.25377 | 143.38720 | 40743 ft | 551 kts | 91° |
| 2026-05-04 03:03 | 35.25678 | 143.48025 | 40738 ft | 550 kts | 92° |
| 2026-05-04 03:03 | 35.25906 | 143.57407 | 40743 ft | 550 kts | 92° |
| 2026-05-04 03:04 | 35.26135 | 143.66780 | 40754 ft | 550 kts | 92° |
| 2026-05-04 03:04 | 35.26368 | 143.76084 | 40760 ft | 550 kts | 92° |
| 2026-05-04 03:05 | 35.26601 | 143.85446 | 40756 ft | 551 kts | 92° |
| 2026-05-04 03:05 | 35.26828 | 143.94825 | 40759 ft | 551 kts | 92° |
| 2026-05-04 03:06 | 35.27046 | 144.04204 | 40770 ft | 551 kts | 92° |
| 2026-05-04 03:06 | 35.27257 | 144.13579 | 40766 ft | 551 kts | 92° |
| 2026-05-04 03:07 | 35.27461 | 144.22939 | 40774 ft | 551 kts | 92° |
| 2026-05-04 03:07 | 35.27657 | 144.32308 | 40774 ft | 550 kts | 92° |
| 2026-05-04 03:08 | 35.27845 | 144.41622 | 40776 ft | 550 kts | 92° |
| 2026-05-04 03:08 | 35.27997 | 144.49403 | 40781 ft | 550 kts | 92° |
| 2026-05-04 03:09 | 35.28201 | 144.60320 | 40784 ft | 549 kts | 92° |
| 2026-05-04 03:09 | 35.28340 | 144.68090 | 40787 ft | 549 kts | 92° |
| 2026-05-04 03:10 | 35.28501 | 144.77432 | 40785 ft | 548 kts | 92° |
| 2026-05-04 03:10 | 35.28655 | 144.86762 | 40796 ft | 548 kts | 92° |
| 2026-05-04 03:11 | 35.28801 | 144.96089 | 40798 ft | 548 kts | 92° |
| 2026-05-04 03:11 | 35.29064 | 145.05361 | 40804 ft | 549 kts | 90° |
| 2026-05-04 03:12 | 35.29441 | 145.14677 | 40806 ft | 548 kts | 90° |
| 2026-05-04 03:12 | 35.29799 | 145.24002 | 40808 ft | 548 kts | 90° |
| 2026-05-04 03:13 | 35.30126 | 145.33321 | 40815 ft | 547 kts | 90° |
| 2026-05-04 03:13 | 35.30437 | 145.42646 | 40818 ft | 547 kts | 91° |
| 2026-05-04 03:14 | 35.30739 | 145.51947 | 40821 ft | 547 kts | 90° |
| 2026-05-04 03:14 | 35.31036 | 145.61262 | 40829 ft | 547 kts | 90° |
| 2026-05-04 03:15 | 35.31326 | 145.70570 | 40832 ft | 546 kts | 90° |
| 2026-05-04 03:15 | 35.31606 | 145.79797 | 40828 ft | 546 kts | 90° |
| 2026-05-04 03:16 | 35.31882 | 145.89102 | 40843 ft | 546 kts | 91° |
| 2026-05-04 03:16 | 35.32119 | 145.98389 | 40837 ft | 545 kts | 94° |
| 2026-05-04 03:17 | 35.31693 | 146.07626 | 40845 ft | 542 kts | 97° |
| 2026-05-04 03:17 | 35.31102 | 146.16839 | 40853 ft | 542 kts | 98° |
| 2026-05-04 03:18 | 35.30487 | 146.25975 | 40856 ft | 542 kts | 98° |
| 2026-05-04 03:18 | 35.29869 | 146.35168 | 40855 ft | 542 kts | 98° |
| 2026-05-04 03:19 | 35.29250 | 146.44378 | 40857 ft | 542 kts | 98° |
| 2026-05-04 03:19 | 35.28628 | 146.53570 | 40862 ft | 542 kts | 98° |
| 2026-05-04 03:20 | 35.27998 | 146.62779 | 40868 ft | 542 kts | 98° |
| 2026-05-04 03:20 | 35.27365 | 146.71914 | 40863 ft | 541 kts | 98° |
| 2026-05-04 03:21 | 35.26723 | 146.81084 | 40881 ft | 541 kts | 98° |
| 2026-05-04 03:21 | 35.26074 | 146.90256 | 40877 ft | 540 kts | 98° |
| 2026-05-04 03:22 | 35.25419 | 146.99411 | 40877 ft | 540 kts | 98° |
| 2026-05-04 03:22 | 35.24756 | 147.08570 | 40885 ft | 540 kts | 98° |
| 2026-05-04 03:23 | 35.24087 | 147.17723 | 40887 ft | 540 kts | 98° |
| 2026-05-04 03:23 | 35.23410 | 147.26876 | 40888 ft | 539 kts | 98° |
| 2026-05-04 03:24 | 35.22733 | 147.35949 | 40899 ft | 538 kts | 98° |
| 2026-05-04 03:24 | 35.22048 | 147.45047 | 40910 ft | 537 kts | 98° |
| 2026-05-04 03:25 | 35.21354 | 147.54152 | 40903 ft | 538 kts | 98° |
| 2026-05-04 03:25 | 35.20655 | 147.63249 | 40908 ft | 538 kts | 98° |
| 2026-05-04 03:26 | 35.19946 | 147.72364 | 40927 ft | 538 kts | 98° |
| 2026-05-04 03:26 | 35.19232 | 147.81475 | 40896 ft | 538 kts | 98° |
| 2026-05-04 03:27 | 35.18511 | 147.90582 | 40919 ft | 537 kts | 98° |
| 2026-05-04 03:27 | 35.17789 | 147.99602 | 40927 ft | 536 kts | 98° |
| 2026-05-04 03:28 | 35.17057 | 148.08674 | 40927 ft | 536 kts | 98° |
| 2026-05-04 03:28 | 35.16317 | 148.17755 | 40938 ft | 536 kts | 98° |
| 2026-05-04 03:29 | 35.15572 | 148.26813 | 40937 ft | 536 kts | 98° |
| 2026-05-04 03:29 | 35.14818 | 148.35892 | 40939 ft | 536 kts | 98° |
| 2026-05-04 03:30 | 35.14061 | 148.44940 | 40943 ft | 536 kts | 98° |
| 2026-05-04 03:30 | 35.13295 | 148.54000 | 40949 ft | 535 kts | 98° |
| 2026-05-04 03:31 | 35.12530 | 148.62972 | 40955 ft | 534 kts | 98° |
| 2026-05-04 03:31 | 35.11751 | 148.72026 | 40958 ft | 534 kts | 98° |
| 2026-05-04 03:32 | 35.10966 | 148.81062 | 40954 ft | 535 kts | 98° |
| 2026-05-04 03:32 | 35.10176 | 148.90091 | 40964 ft | 535 kts | 98° |
| 2026-05-04 03:33 | 35.09378 | 148.99128 | 40955 ft | 534 kts | 98° |
| 2026-05-04 03:33 | 35.08580 | 149.08087 | 40966 ft | 534 kts | 98° |
| 2026-05-04 03:34 | 35.07771 | 149.17095 | 40970 ft | 533 kts | 98° |
| 2026-05-04 03:34 | 35.06956 | 149.26099 | 40972 ft | 533 kts | 98° |
| 2026-05-04 03:35 | 35.06134 | 149.35097 | 40979 ft | 533 kts | 98° |
| 2026-05-04 03:35 | 35.05306 | 149.44085 | 40982 ft | 533 kts | 98° |
| 2026-05-04 03:36 | 35.04477 | 149.53019 | 40986 ft | 533 kts | 98° |
| 2026-05-04 03:36 | 35.03636 | 149.61997 | 40989 ft | 532 kts | 98° |
| 2026-05-04 03:37 | 35.02790 | 149.70964 | 40986 ft | 531 kts | 98° |
| 2026-05-04 03:37 | 35.01937 | 149.79938 | 40986 ft | 531 kts | 98° |
| 2026-05-04 03:38 | 35.01079 | 149.88884 | 40996 ft | 531 kts | 98° |
| 2026-05-04 03:38 | 35.00232 | 149.97782 | 40994 ft | 532 kts | 96° |
| 2026-05-04 03:39 | 35.00127 | 150.06819 | 40992 ft | 532 kts | 90° |
| 2026-05-04 03:39 | 35.00285 | 150.15847 | 41006 ft | 533 kts | 89° |
| 2026-05-04 03:40 | 35.00477 | 150.24890 | 41005 ft | 533 kts | 89° |
| 2026-05-04 03:40 | 35.00653 | 150.33932 | 41001 ft | 533 kts | 89° |
| 2026-05-04 03:41 | 35.00813 | 150.42978 | 41005 ft | 533 kts | 89° |
| 2026-05-04 03:41 | 35.00963 | 150.52032 | 41019 ft | 533 kts | 89° |
| 2026-05-04 03:42 | 35.01106 | 150.61095 | 41017 ft | 533 kts | 89° |
| 2026-05-04 03:42 | 35.01242 | 150.70091 | 41018 ft | 534 kts | 89° |
| 2026-05-04 03:43 | 35.01372 | 150.79146 | 41015 ft | 533 kts | 89° |
| 2026-05-04 03:43 | 35.01496 | 150.88196 | 41021 ft | 533 kts | 89° |
| 2026-05-04 03:44 | 35.01612 | 150.97243 | 41024 ft | 533 kts | 89° |
| 2026-05-04 03:44 | 35.01722 | 151.06297 | 41026 ft | 533 kts | 89° |
| 2026-05-04 03:45 | 35.01826 | 151.15332 | 41021 ft | 532 kts | 89° |
| 2026-05-04 03:45 | 35.01921 | 151.24320 | 41031 ft | 529 kts | 89° |
| 2026-05-04 03:46 | 35.02011 | 151.33301 | 41028 ft | 528 kts | 89° |
| 2026-05-04 03:46 | 35.02092 | 151.42199 | 41033 ft | 528 kts | 89° |
| 2026-05-04 03:47 | 35.02168 | 151.51144 | 41043 ft | 528 kts | 89° |
| 2026-05-04 03:47 | 35.02238 | 151.60105 | 41044 ft | 528 kts | 89° |
| 2026-05-04 03:48 | 35.02301 | 151.69078 | 41061 ft | 527 kts | 89° |
| 2026-05-04 03:48 | 35.02356 | 151.77968 | 41050 ft | 527 kts | 89° |
| 2026-05-04 03:49 | 35.02406 | 151.86922 | 41055 ft | 527 kts | 89° |
| 2026-05-04 03:49 | 35.02449 | 151.95858 | 41059 ft | 527 kts | 89° |
| 2026-05-04 03:50 | 35.02485 | 152.04817 | 41066 ft | 527 kts | 89° |
| 2026-05-04 03:50 | 35.02515 | 152.13742 | 41054 ft | 526 kts | 89° |
| 2026-05-04 03:51 | 35.02538 | 152.22601 | 41054 ft | 525 kts | 89° |
| 2026-05-04 03:51 | 35.02555 | 152.31512 | 41060 ft | 525 kts | 89° |
| 2026-05-04 03:52 | 35.02565 | 152.40428 | 41078 ft | 525 kts | 90° |
| 2026-05-04 03:52 | 35.02569 | 152.49335 | 41066 ft | 525 kts | 90° |
| 2026-05-04 03:53 | 35.02566 | 152.58247 | 41062 ft | 525 kts | 90° |
| 2026-05-04 03:53 | 35.02557 | 152.67099 | 41067 ft | 525 kts | 90° |
| 2026-05-04 03:54 | 35.02541 | 152.76062 | 41082 ft | 525 kts | 90° |
| 2026-05-04 03:54 | 35.02519 | 152.84912 | 41089 ft | 525 kts | 90° |
| 2026-05-04 03:55 | 35.02495 | 152.92364 | 41079 ft | 524 kts | 90° |
| 2026-05-04 03:55 | 35.02455 | 153.02707 | 41089 ft | 523 kts | 90° |
| 2026-05-04 03:56 | 35.02414 | 153.11574 | 41076 ft | 522 kts | 90° |
| 2026-05-04 03:56 | 35.02365 | 153.20413 | 41089 ft | 521 kts | 90° |
| 2026-05-04 03:57 | 35.02321 | 153.27769 | 41090 ft | 521 kts | 90° |
| 2026-05-04 03:57 | 35.02261 | 153.36621 | 41093 ft | 521 kts | 90° |
| 2026-05-04 03:58 | 35.02160 | 153.49878 | 41105 ft | 521 kts | 90° |
| 2026-05-04 03:58 | 35.02084 | 153.58719 | 41107 ft | 521 kts | 90° |
| 2026-05-04 03:59 | 35.02002 | 153.67571 | 41090 ft | 522 kts | 90° |
| 2026-05-04 03:59 | 35.01913 | 153.76417 | 41106 ft | 522 kts | 90° |
| 2026-05-04 04:00 | 35.01818 | 153.85268 | 41103 ft | 522 kts | 90° |
| 2026-05-04 04:00 | 35.01717 | 153.94142 | 41104 ft | 522 kts | 90° |
| 2026-05-04 04:01 | 35.01609 | 154.02920 | 41110 ft | 521 kts | 90° |
| 2026-05-04 04:01 | 35.01495 | 154.11753 | 41115 ft | 520 kts | 90° |
| 2026-05-04 04:02 | 35.01375 | 154.20580 | 41113 ft | 520 kts | 90° |
| 2026-05-04 04:02 | 35.01248 | 154.29402 | 41119 ft | 520 kts | 90° |
| 2026-05-04 04:03 | 35.01115 | 154.38225 | 41128 ft | 520 kts | 90° |
| 2026-05-04 04:03 | 35.00976 | 154.47038 | 41117 ft | 519 kts | 90° |
| 2026-05-04 04:04 | 35.00831 | 154.55782 | 41123 ft | 519 kts | 90° |
| 2026-05-04 04:04 | 35.00680 | 154.64588 | 41140 ft | 519 kts | 90° |
| 2026-05-04 04:05 | 35.00521 | 154.73397 | 41131 ft | 519 kts | 90° |
| 2026-05-04 04:05 | 35.00357 | 154.82205 | 41129 ft | 519 kts | 90° |
| 2026-05-04 04:06 | 35.00186 | 154.90995 | 41137 ft | 519 kts | 90° |
| 2026-05-04 04:06 | 35.00009 | 154.99784 | 41136 ft | 517 kts | 90° |
| 2026-05-04 04:07 | 35.00028 | 155.08533 | 41136 ft | 515 kts | 86° |
| 2026-05-04 04:07 | 35.00274 | 155.17276 | 41134 ft | 515 kts | 86° |
| 2026-05-04 04:08 | 35.00498 | 155.25961 | 41140 ft | 515 kts | 87° |
| 2026-05-04 04:08 | 35.00673 | 155.34694 | 41140 ft | 516 kts | 87° |
| 2026-05-04 04:09 | 35.00823 | 155.43443 | 41144 ft | 516 kts | 87° |
| 2026-05-04 04:09 | 35.00965 | 155.52186 | 41143 ft | 515 kts | 87° |
| 2026-05-04 04:10 | 35.01103 | 155.60933 | 41146 ft | 515 kts | 87° |
| 2026-05-04 04:10 | 35.01235 | 155.69676 | 41153 ft | 515 kts | 87° |
| 2026-05-04 04:11 | 35.01361 | 155.78414 | 41150 ft | 514 kts | 87° |
| 2026-05-04 04:11 | 35.01481 | 155.87146 | 41140 ft | 514 kts | 87° |
| 2026-05-04 04:12 | 35.01594 | 155.95871 | 41146 ft | 514 kts | 87° |
| 2026-05-04 04:12 | 35.01702 | 156.04592 | 41143 ft | 514 kts | 87° |
| 2026-05-04 04:13 | 35.01802 | 156.13307 | 41154 ft | 513 kts | 87° |
| 2026-05-04 04:13 | 35.01896 | 156.21939 | 41155 ft | 512 kts | 87° |
| 2026-05-04 04:14 | 35.01984 | 156.30616 | 41158 ft | 512 kts | 87° |
| 2026-05-04 04:14 | 35.02066 | 156.39317 | 41159 ft | 512 kts | 87° |
| 2026-05-04 04:15 | 35.02142 | 156.48005 | 41159 ft | 512 kts | 88° |
| 2026-05-04 04:15 | 35.02212 | 156.56708 | 41162 ft | 512 kts | 88° |
| 2026-05-04 04:16 | 35.02275 | 156.65402 | 41169 ft | 512 kts | 88° |
| 2026-05-04 04:16 | 35.02332 | 156.74049 | 41168 ft | 512 kts | 88° |
| 2026-05-04 04:17 | 35.02383 | 156.82726 | 41172 ft | 512 kts | 88° |
| 2026-05-04 04:17 | 35.02428 | 156.91434 | 41169 ft | 512 kts | 88° |
| 2026-05-04 04:18 | 35.02467 | 157.00135 | 41165 ft | 513 kts | 88° |
| 2026-05-04 04:18 | 35.02499 | 157.08843 | 41171 ft | 513 kts | 88° |
| 2026-05-04 04:19 | 35.02525 | 157.17558 | 41185 ft | 513 kts | 88° |
| 2026-05-04 04:19 | 35.02545 | 157.26256 | 41165 ft | 513 kts | 88° |
| 2026-05-04 04:20 | 35.02559 | 157.34944 | 41183 ft | 511 kts | 88° |
| 2026-05-04 04:20 | 35.02567 | 157.43618 | 41184 ft | 511 kts | 88° |
| 2026-05-04 04:21 | 35.02568 | 157.52244 | 41184 ft | 511 kts | 88° |
| 2026-05-04 04:21 | 35.02564 | 157.60919 | 41196 ft | 511 kts | 88° |
| 2026-05-04 04:22 | 35.02553 | 157.69605 | 41181 ft | 512 kts | 88° |
| 2026-05-04 04:22 | 35.02536 | 157.78296 | 41199 ft | 512 kts | 88° |
| 2026-05-04 04:23 | 35.02512 | 157.86985 | 41184 ft | 512 kts | 88° |
| 2026-05-04 04:23 | 35.02483 | 157.95683 | 41188 ft | 512 kts | 88° |
| 2026-05-04 04:24 | 35.02447 | 158.04378 | 41195 ft | 513 kts | 88° |
| 2026-05-04 04:24 | 35.02405 | 158.13076 | 41203 ft | 513 kts | 88° |
| 2026-05-04 04:25 | 35.02357 | 158.21774 | 41189 ft | 513 kts | 88° |
| 2026-05-04 04:25 | 35.02303 | 158.30415 | 41208 ft | 512 kts | 88° |
| 2026-05-04 04:26 | 35.02243 | 158.39105 | 41193 ft | 512 kts | 88° |
| 2026-05-04 04:26 | 35.02176 | 158.47804 | 41185 ft | 512 kts | 89° |
| 2026-05-04 04:27 | 35.02103 | 158.56492 | 41200 ft | 511 kts | 89° |
| 2026-05-04 04:27 | 35.02024 | 158.65155 | 41203 ft | 510 kts | 89° |
| 2026-05-04 04:28 | 35.01939 | 158.73804 | 41205 ft | 510 kts | 89° |
| 2026-05-04 04:28 | 35.01849 | 158.82458 | 41205 ft | 510 kts | 89° |
| 2026-05-04 04:29 | 35.01752 | 158.91064 | 41213 ft | 510 kts | 89° |
| 2026-05-04 04:29 | 35.01649 | 158.99709 | 41215 ft | 510 kts | 89° |
| 2026-05-04 04:30 | 35.01540 | 159.08373 | 41212 ft | 511 kts | 89° |
| 2026-05-04 04:30 | 35.01424 | 159.17044 | 41217 ft | 511 kts | 89° |
| 2026-05-04 04:31 | 35.01302 | 159.25705 | 41219 ft | 511 kts | 89° |
| 2026-05-04 04:31 | 35.01174 | 159.34391 | 41209 ft | 512 kts | 89° |
| 2026-05-04 04:32 | 35.01039 | 159.43078 | 41226 ft | 512 kts | 89° |
| 2026-05-04 04:32 | 35.00899 | 159.51707 | 41209 ft | 512 kts | 89° |
| 2026-05-04 04:33 | 35.00753 | 159.60390 | 41221 ft | 512 kts | 89° |
| 2026-05-04 04:33 | 35.00600 | 159.69069 | 41232 ft | 512 kts | 89° |
| 2026-05-04 04:34 | 35.00440 | 159.77750 | 41228 ft | 510 kts | 89° |
| 2026-05-04 04:34 | 35.00275 | 159.86410 | 41233 ft | 509 kts | 89° |
| 2026-05-04 04:35 | 35.00105 | 159.95041 | 41238 ft | 509 kts | 89° |
| 2026-05-04 04:35 | 34.99335 | 160.03587 | 41216 ft | 512 kts | 99° |
| 2026-05-04 04:36 | 34.97898 | 160.12099 | 41243 ft | 512 kts | 101° |
| 2026-05-04 04:36 | 34.96357 | 160.20592 | 41246 ft | 513 kts | 101° |
| 2026-05-04 04:37 | 34.93272 | 160.37579 | 41253 ft | 513 kts | 101° |
| 2026-05-04 04:38 | 34.91734 | 160.46072 | 41250 ft | 513 kts | 101° |
| 2026-05-04 04:38 | 34.90197 | 160.54528 | 41248 ft | 513 kts | 101° |
| 2026-05-04 04:39 | 34.88647 | 160.63018 | 41251 ft | 514 kts | 101° |
| 2026-05-04 04:39 | 34.87089 | 160.71512 | 41243 ft | 514 kts | 101° |
| 2026-05-04 04:40 | 34.85526 | 160.80003 | 41246 ft | 514 kts | 101° |
| 2026-05-04 04:40 | 34.83954 | 160.88502 | 41256 ft | 514 kts | 101° |
| 2026-05-04 04:41 | 34.82383 | 160.96960 | 41260 ft | 514 kts | 101° |
| 2026-05-04 04:41 | 34.80801 | 161.05445 | 41253 ft | 514 kts | 101° |
| 2026-05-04 04:42 | 34.79481 | 161.12500 | 41252 ft | 514 kts | 101° |
| 2026-05-04 04:42 | 34.77888 | 161.20978 | 41261 ft | 514 kts | 101° |
| 2026-05-04 04:43 | 34.76292 | 161.29440 | 41258 ft | 511 kts | 101° |
| 2026-05-04 04:43 | 34.74698 | 161.37857 | 41263 ft | 510 kts | 101° |
| 2026-05-04 04:44 | 34.73102 | 161.46250 | 41263 ft | 510 kts | 101° |
| 2026-05-04 04:44 | 34.71497 | 161.54661 | 41262 ft | 510 kts | 101° |
| 2026-05-04 04:45 | 34.69894 | 161.63023 | 41273 ft | 510 kts | 101° |
| 2026-05-04 04:47 | 34.64219 | 161.92372 | 41273 ft | 510 kts | 102° |
| 2026-05-04 04:47 | 34.62588 | 162.00734 | 41274 ft | 508 kts | 102° |
| 2026-05-04 04:48 | 34.60966 | 162.09012 | 41283 ft | 506 kts | 102° |
| 2026-05-04 04:49 | 34.56864 | 162.29822 | 41276 ft | 507 kts | 102° |
| 2026-05-04 04:49 | 34.55213 | 162.38140 | 41276 ft | 508 kts | 102° |
| 2026-05-04 04:50 | 34.53553 | 162.46472 | 41289 ft | 508 kts | 102° |
| 2026-05-04 04:50 | 34.51887 | 162.54801 | 41274 ft | 508 kts | 102° |
| 2026-05-04 04:51 | 34.50217 | 162.63116 | 41285 ft | 508 kts | 102° |
| 2026-05-04 04:51 | 34.48551 | 162.71385 | 41293 ft | 507 kts | 102° |
| 2026-05-04 04:52 | 34.46873 | 162.79683 | 41288 ft | 507 kts | 102° |
| 2026-05-04 04:52 | 34.45190 | 162.87974 | 41285 ft | 506 kts | 102° |
| 2026-05-04 04:53 | 34.43500 | 162.96263 | 41292 ft | 507 kts | 102° |
| 2026-05-04 04:53 | 34.41806 | 163.04547 | 41285 ft | 507 kts | 102° |
| 2026-05-04 04:54 | 34.40102 | 163.12848 | 41294 ft | 508 kts | 102° |
| 2026-05-04 04:54 | 34.38392 | 163.21143 | 41288 ft | 508 kts | 102° |
| 2026-05-04 04:55 | 34.36687 | 163.29388 | 41302 ft | 508 kts | 102° |
| 2026-05-04 04:55 | 34.34966 | 163.37679 | 41282 ft | 508 kts | 102° |
| 2026-05-04 04:56 | 34.33240 | 163.45965 | 41291 ft | 506 kts | 102° |
| 2026-05-04 04:56 | 34.31512 | 163.54229 | 41289 ft | 506 kts | 102° |
| 2026-05-04 04:57 | 34.29781 | 163.62480 | 41291 ft | 505 kts | 103° |
| 2026-05-04 04:57 | 34.28057 | 163.70666 | 41297 ft | 506 kts | 102° |
| 2026-05-04 04:58 | 34.26315 | 163.78907 | 41291 ft | 506 kts | 102° |
| 2026-05-04 04:58 | 34.24565 | 163.87159 | 41297 ft | 506 kts | 103° |
| 2026-05-04 04:59 | 34.22809 | 163.95405 | 41305 ft | 506 kts | 103° |
| 2026-05-04 04:59 | 34.21047 | 164.03654 | 41303 ft | 506 kts | 103° |
| 2026-05-04 05:00 | 34.19281 | 164.11892 | 41297 ft | 506 kts | 102° |
| 2026-05-04 05:01 | 34.16631 | 164.24195 | 41300 ft | 503 kts | 102° |
| 2026-05-04 05:01 | 34.14861 | 164.32379 | 41305 ft | 503 kts | 102° |
| 2026-05-04 05:02 | 34.13099 | 164.40499 | 41309 ft | 503 kts | 102° |
| 2026-05-04 05:02 | 34.11319 | 164.48674 | 41301 ft | 504 kts | 102° |
| 2026-05-04 05:03 | 34.09532 | 164.56849 | 41310 ft | 504 kts | 103° |
| 2026-05-04 05:04 | 34.05937 | 164.73215 | 41312 ft | 504 kts | 103° |
| 2026-05-04 05:04 | 34.04130 | 164.81401 | 41299 ft | 504 kts | 103° |
| 2026-05-04 05:06 | 33.95134 | 165.13188 | 41307 ft | 504 kts | 112° |
| 2026-05-04 05:07 | 33.92243 | 165.20873 | 41304 ft | 504 kts | 112° |
| 2026-05-04 05:07 | 33.89350 | 165.28566 | 41308 ft | 504 kts | 112° |
| 2026-05-04 05:09 | 33.76386 | 165.63001 | 41303 ft | 502 kts | 112° |
| 2026-05-04 05:10 | 33.73495 | 165.70631 | 41309 ft | 502 kts | 112° |
| 2026-05-04 05:10 | 33.70598 | 165.78261 | 41312 ft | 502 kts | 112° |
| 2026-05-04 05:11 | 33.67699 | 165.85879 | 41309 ft | 502 kts | 112° |
| 2026-05-04 05:11 | 33.64792 | 165.93502 | 41303 ft | 501 kts | 112° |
| 2026-05-04 05:12 | 33.61888 | 166.01097 | 41310 ft | 500 kts | 112° |
| 2026-05-04 05:12 | 33.58986 | 166.08670 | 41309 ft | 500 kts | 112° |
| 2026-05-04 05:13 | 33.56078 | 166.16244 | 41314 ft | 500 kts | 112° |
| 2026-05-04 05:13 | 33.53160 | 166.23826 | 41306 ft | 500 kts | 112° |
| 2026-05-04 05:14 | 33.50243 | 166.31388 | 41308 ft | 500 kts | 112° |
| 2026-05-04 05:14 | 33.47334 | 166.38911 | 41311 ft | 500 kts | 112° |
| 2026-05-04 05:15 | 33.44407 | 166.46463 | 41310 ft | 499 kts | 112° |
| 2026-05-04 05:15 | 33.41482 | 166.53996 | 41313 ft | 498 kts | 112° |
| 2026-05-04 05:16 | 33.38555 | 166.61517 | 41312 ft | 499 kts | 112° |
| 2026-05-04 05:16 | 33.35613 | 166.69059 | 41311 ft | 499 kts | 112° |
| 2026-05-04 05:17 | 33.32673 | 166.76577 | 41314 ft | 499 kts | 112° |
| 2026-05-04 05:17 | 33.29730 | 166.84089 | 41313 ft | 499 kts | 112° |
| 2026-05-04 05:18 | 33.26802 | 166.91545 | 41315 ft | 499 kts | 112° |
| 2026-05-04 05:18 | 33.23842 | 166.99067 | 41314 ft | 500 kts | 113° |
| 2026-05-04 05:19 | 33.20877 | 167.06582 | 41308 ft | 500 kts | 113° |
| 2026-05-04 05:19 | 33.17909 | 167.14092 | 41314 ft | 500 kts | 113° |
| 2026-05-04 05:20 | 33.14944 | 167.21576 | 41314 ft | 500 kts | 113° |
| 2026-05-04 05:20 | 33.11964 | 167.29082 | 41316 ft | 500 kts | 113° |
| 2026-05-04 05:21 | 33.08977 | 167.36589 | 41312 ft | 500 kts | 113° |
| 2026-05-04 05:21 | 33.05989 | 167.44081 | 41317 ft | 501 kts | 113° |
| 2026-05-04 05:22 | 33.03014 | 167.51525 | 41307 ft | 499 kts | 113° |
| 2026-05-04 05:22 | 33.00025 | 167.58988 | 41311 ft | 499 kts | 113° |
| 2026-05-04 05:23 | 32.97031 | 167.66448 | 41311 ft | 499 kts | 113° |
| 2026-05-04 05:23 | 32.94025 | 167.73922 | 41311 ft | 500 kts | 113° |
| 2026-05-04 05:24 | 32.91018 | 167.81382 | 41310 ft | 500 kts | 113° |
| 2026-05-04 05:24 | 32.88004 | 167.88842 | 41313 ft | 500 kts | 113° |
| 2026-05-04 05:25 | 32.84986 | 167.96297 | 41323 ft | 500 kts | 113° |
| 2026-05-04 05:25 | 32.81984 | 168.03697 | 41313 ft | 498 kts | 113° |
| 2026-05-04 05:26 | 32.78971 | 168.11105 | 41314 ft | 497 kts | 113° |
| 2026-05-04 05:26 | 32.75956 | 168.18506 | 41314 ft | 497 kts | 113° |
| 2026-05-04 05:28 | 32.64362 | 168.46818 | 41308 ft | 499 kts | 114° |
| 2026-05-04 05:29 | 32.61318 | 168.54214 | 41302 ft | 498 kts | 114° |
| 2026-05-04 05:29 | 32.58273 | 168.61595 | 41306 ft | 497 kts | 114° |
| 2026-05-04 05:31 | 32.46087 | 168.90985 | 41311 ft | 498 kts | 114° |
| 2026-05-04 05:32 | 32.43020 | 168.98344 | 41303 ft | 498 kts | 114° |
| 2026-05-04 05:33 | 32.38423 | 169.09345 | 41308 ft | 497 kts | 114° |
| 2026-05-04 05:33 | 32.35352 | 169.16675 | 41305 ft | 497 kts | 114° |
| 2026-05-04 05:34 | 32.32298 | 169.23949 | 41307 ft | 497 kts | 114° |
| 2026-05-04 05:34 | 32.29222 | 169.31262 | 41305 ft | 497 kts | 114° |
| 2026-05-04 05:35 | 32.26142 | 169.38570 | 41306 ft | 497 kts | 114° |
| 2026-05-04 05:35 | 32.23056 | 169.45876 | 41310 ft | 497 kts | 114° |
| 2026-05-04 05:36 | 32.19966 | 169.53176 | 41308 ft | 497 kts | 114° |
| 2026-05-04 05:36 | 32.16867 | 169.60482 | 41306 ft | 497 kts | 114° |
| 2026-05-04 05:37 | 32.13771 | 169.67767 | 41308 ft | 497 kts | 114° |
| 2026-05-04 05:37 | 32.10671 | 169.75047 | 41306 ft | 497 kts | 114° |
| 2026-05-04 05:38 | 32.06009 | 169.85969 | 41309 ft | 497 kts | 114° |
| 2026-05-04 05:38 | 32.02891 | 169.93255 | 41311 ft | 498 kts | 114° |
| 2026-05-04 05:39 | 31.98291 | 170.04160 | 41308 ft | 496 kts | 111° |
| 2026-05-04 05:40 | 31.94189 | 170.15358 | 41307 ft | 496 kts | 110° |
| 2026-05-04 05:40 | 31.91459 | 170.22819 | 41309 ft | 497 kts | 111° |
| 2026-05-04 05:41 | 31.88681 | 170.30269 | 41312 ft | 497 kts | 111° |
| 2026-05-04 05:41 | 31.85881 | 170.37705 | 41310 ft | 497 kts | 111° |
| 2026-05-04 05:42 | 31.83076 | 170.45136 | 41307 ft | 497 kts | 111° |
| 2026-05-04 05:42 | 31.80267 | 170.52568 | 41317 ft | 497 kts | 111° |
| 2026-05-04 05:43 | 31.77454 | 170.59995 | 41314 ft | 498 kts | 111° |
| 2026-05-04 05:45 | 31.66157 | 170.89675 | 41314 ft | 498 kts | 111° |
| 2026-05-04 05:47 | 31.54766 | 171.19346 | 41316 ft | 498 kts | 112° |
| 2026-05-04 05:47 | 31.51901 | 171.26770 | 41308 ft | 498 kts | 112° |
| 2026-05-04 05:48 | 31.49059 | 171.34119 | 41313 ft | 499 kts | 112° |
| 2026-05-04 05:48 | 31.46189 | 171.41525 | 41312 ft | 499 kts | 112° |
| 2026-05-04 05:49 | 31.43311 | 171.48935 | 41330 ft | 499 kts | 112° |
| 2026-05-04 05:49 | 31.40433 | 171.56329 | 41314 ft | 499 kts | 112° |
| 2026-05-04 05:51 | 31.28884 | 171.85852 | 41324 ft | 500 kts | 112° |
| 2026-05-04 05:52 | 31.25981 | 171.93234 | 41335 ft | 500 kts | 113° |
| 2026-05-04 05:52 | 31.23067 | 172.00628 | 41326 ft | 500 kts | 113° |
| 2026-05-04 05:54 | 31.11372 | 172.30153 | 41331 ft | 502 kts | 113° |
| 2026-05-04 05:55 | 31.08430 | 172.37542 | 41346 ft | 502 kts | 113° |
| 2026-05-04 05:55 | 31.05480 | 172.44938 | 41334 ft | 502 kts | 113° |
| 2026-05-04 05:56 | 31.02549 | 172.52268 | 41336 ft | 502 kts | 113° |
| 2026-05-04 05:56 | 30.99591 | 172.59652 | 41336 ft | 502 kts | 113° |
| 2026-05-04 05:57 | 30.96629 | 172.67032 | 41335 ft | 502 kts | 113° |
| 2026-05-04 05:57 | 30.93663 | 172.74406 | 41331 ft | 502 kts | 113° |
| 2026-05-04 05:58 | 30.90691 | 172.81781 | 41334 ft | 502 kts | 113° |
| 2026-05-04 05:58 | 30.87716 | 172.89148 | 41342 ft | 502 kts | 114° |
| 2026-05-04 05:59 | 30.84754 | 172.96466 | 41339 ft | 502 kts | 114° |
| 2026-05-04 05:59 | 30.81770 | 173.03826 | 41340 ft | 502 kts | 114° |
| 2026-05-04 06:00 | 30.78782 | 173.11181 | 41340 ft | 503 kts | 114° |
| 2026-05-04 06:00 | 30.75790 | 173.18529 | 41343 ft | 503 kts | 114° |
| 2026-05-04 06:01 | 30.72791 | 173.25882 | 41346 ft | 503 kts | 114° |
| 2026-05-04 06:03 | 30.60781 | 173.55175 | 41350 ft | 503 kts | 114° |
| 2026-05-04 06:05 | 30.47175 | 173.88084 | 41345 ft | 502 kts | 114° |
| 2026-05-04 06:06 | 30.44126 | 173.95418 | 41348 ft | 502 kts | 114° |
| 2026-05-04 06:06 | 30.41104 | 174.02674 | 41347 ft | 503 kts | 114° |
| 2026-05-04 06:07 | 30.38060 | 174.09969 | 41347 ft | 503 kts | 114° |
| 2026-05-04 06:07 | 30.35004 | 174.17277 | 41350 ft | 503 kts | 114° |
| 2026-05-04 06:08 | 30.31951 | 174.24565 | 41346 ft | 503 kts | 114° |
| 2026-05-04 06:08 | 30.28890 | 174.31856 | 41351 ft | 503 kts | 115° |
| 2026-05-04 06:09 | 30.25828 | 174.39138 | 41349 ft | 503 kts | 115° |
| 2026-05-04 06:11 | 30.13573 | 174.68136 | 41360 ft | 502 kts | 115° |
| 2026-05-04 06:13 | 30.01244 | 174.97137 | 41347 ft | 502 kts | 113° |
| 2026-05-04 06:14 | 29.96527 | 175.19086 | 41356 ft | 498 kts | 99° |
| 2026-05-04 06:14 | 29.95834 | 175.23005 | 41358 ft | 498 kts | 100° |
| 2026-05-04 06:15 | 29.94431 | 175.30829 | 41357 ft | 498 kts | 100° |
| 2026-05-04 06:15 | 29.93015 | 175.38618 | 41361 ft | 498 kts | 100° |
| 2026-05-04 06:16 | 29.91585 | 175.46430 | 41355 ft | 499 kts | 100° |
| 2026-05-04 06:16 | 29.90149 | 175.54251 | 41354 ft | 499 kts | 100° |
| 2026-05-04 06:17 | 29.88704 | 175.62097 | 41355 ft | 499 kts | 100° |
| 2026-05-04 06:17 | 29.87255 | 175.69935 | 41356 ft | 499 kts | 100° |
| 2026-05-04 06:18 | 29.85804 | 175.77761 | 41354 ft | 499 kts | 100° |
| 2026-05-04 06:20 | 29.79951 | 176.09051 | 41357 ft | 501 kts | 100° |
| 2026-05-04 06:21 | 29.76250 | 176.28623 | 41354 ft | 500 kts | 101° |
| 2026-05-04 06:22 | 29.74760 | 176.36449 | 41355 ft | 499 kts | 101° |
| 2026-05-04 06:25 | 29.64233 | 176.91040 | 41355 ft | 499 kts | 101° |
| 2026-05-04 06:26 | 29.62708 | 176.98843 | 41361 ft | 500 kts | 101° |
| 2026-05-04 06:26 | 29.61190 | 177.06585 | 41357 ft | 500 kts | 101° |
| 2026-05-04 06:27 | 29.57341 | 177.26105 | 41357 ft | 501 kts | 101° |
| 2026-05-04 06:28 | 29.55793 | 177.33911 | 41364 ft | 501 kts | 101° |
| 2026-05-04 06:28 | 29.54242 | 177.41708 | 41358 ft | 501 kts | 101° |
| 2026-05-04 06:29 | 29.52683 | 177.49515 | 41358 ft | 501 kts | 101° |
| 2026-05-04 06:29 | 29.51129 | 177.57276 | 41355 ft | 501 kts | 101° |
| 2026-05-04 06:30 | 29.49562 | 177.65078 | 41361 ft | 500 kts | 101° |
| 2026-05-04 06:30 | 29.47994 | 177.72857 | 41362 ft | 500 kts | 101° |
| 2026-05-04 06:31 | 29.46422 | 177.80633 | 41358 ft | 500 kts | 101° |
| 2026-05-04 06:31 | 29.44855 | 177.88358 | 41357 ft | 500 kts | 101° |
| 2026-05-04 06:33 | 29.38496 | 178.19463 | 41356 ft | 501 kts | 102° |
| 2026-05-04 06:34 | 29.36893 | 178.27240 | 41354 ft | 501 kts | 102° |
| 2026-05-04 06:34 | 29.35287 | 178.35011 | 41354 ft | 501 kts | 102° |
| 2026-05-04 06:36 | 29.28826 | 178.66029 | 41364 ft | 501 kts | 102° |
| 2026-05-04 06:37 | 29.27196 | 178.73795 | 41361 ft | 501 kts | 102° |
| 2026-05-04 06:37 | 29.25561 | 178.81558 | 41359 ft | 501 kts | 102° |
| 2026-05-04 06:38 | 29.23933 | 178.89269 | 41356 ft | 501 kts | 102° |
| 2026-05-04 06:40 | 29.17336 | 179.20266 | 41359 ft | 501 kts | 102° |
| 2026-05-04 06:40 | 29.15676 | 179.28006 | 41361 ft | 501 kts | 102° |
| 2026-05-04 06:41 | 29.14012 | 179.35744 | 41360 ft | 501 kts | 102° |
| 2026-05-04 06:41 | 29.12354 | 179.43433 | 41357 ft | 501 kts | 102° |
| 2026-05-04 06:42 | 29.10679 | 179.51172 | 41357 ft | 501 kts | 102° |
| 2026-05-04 06:44 | 29.03937 | 179.82107 | 41357 ft | 501 kts | 103° |
| 2026-05-04 06:44 | 29.02253 | 179.89776 | 41362 ft | 501 kts | 103° |
| 2026-05-04 06:45 | 29.00555 | 179.97487 | 41357 ft | 501 kts | 103° |
| 2026-05-04 06:45 | 28.98929 | -179.94774 | 41359 ft | 501 kts | 100° |
| 2026-05-04 06:46 | 28.97561 | -179.86960 | 41357 ft | 501 kts | 99° |
| 2026-05-04 06:46 | 28.96214 | -179.79159 | 41357 ft | 501 kts | 100° |
| 2026-05-04 06:48 | 28.90531 | -179.47952 | 41357 ft | 503 kts | 101° |
| 2026-05-04 06:50 | 28.84743 | -179.16712 | 41360 ft | 503 kts | 101° |
| 2026-05-04 06:51 | 28.83286 | -179.08911 | 41360 ft | 503 kts | 101° |
| 2026-05-04 06:51 | 28.81833 | -179.01161 | 41360 ft | 503 kts | 101° |
| 2026-05-04 06:52 | 28.80365 | -178.93359 | 41360 ft | 503 kts | 101° |
| 2026-05-04 06:52 | 28.78892 | -178.85556 | 41360 ft | 503 kts | 101° |
| 2026-05-04 06:53 | 28.77415 | -178.77751 | 41357 ft | 503 kts | 101° |
| 2026-05-04 06:53 | 28.75932 | -178.69947 | 41357 ft | 503 kts | 101° |
| 2026-05-04 06:54 | 28.74444 | -178.62143 | 41357 ft | 503 kts | 101° |
| 2026-05-04 06:54 | 28.72964 | -178.54404 | 41357 ft | 503 kts | 101° |
| 2026-05-04 06:55 | 28.71468 | -178.46606 | 41364 ft | 503 kts | 101° |
| 2026-05-04 06:55 | 28.69966 | -178.38804 | 41357 ft | 503 kts | 101° |
| 2026-05-04 06:57 | 28.63930 | -178.07700 | 41357 ft | 505 kts | 102° |
| 2026-05-04 06:58 | 28.62398 | -177.99868 | 41354 ft | 508 kts | 102° |
| 2026-05-04 06:58 | 28.60854 | -177.92003 | 41354 ft | 508 kts | 102° |
| 2026-05-04 06:59 | 28.59331 | -177.84266 | 41354 ft | 508 kts | 102° |
| 2026-05-04 06:59 | 28.57780 | -177.76417 | 41354 ft | 508 kts | 102° |
| 2026-05-04 07:01 | 28.51793 | -177.46341 | 41351 ft | 509 kts | 102° |
| 2026-05-04 07:02 | 28.49965 | -177.37227 | 41353 ft | 509 kts | 102° |
| 2026-05-04 07:02 | 28.48643 | -177.30659 | 41355 ft | 509 kts | 102° |
| 2026-05-04 07:03 | 28.47061 | -177.22824 | 41353 ft | 509 kts | 102° |
| 2026-05-04 07:03 | 28.45473 | -177.14981 | 41354 ft | 509 kts | 102° |
| 2026-05-04 07:04 | 28.43881 | -177.07142 | 41357 ft | 509 kts | 102° |
| 2026-05-04 07:04 | 28.42286 | -176.99314 | 41357 ft | 509 kts | 103° |
| 2026-05-04 07:05 | 28.40695 | -176.91532 | 41359 ft | 509 kts | 103° |
| 2026-05-04 07:05 | 28.39089 | -176.83697 | 41354 ft | 509 kts | 103° |
| 2026-05-04 07:06 | 28.36670 | -176.71947 | 41354 ft | 509 kts | 103° |
| 2026-05-04 07:07 | 28.35051 | -176.64110 | 41355 ft | 509 kts | 103° |
| 2026-05-04 07:09 | 28.28539 | -176.32830 | 41356 ft | 510 kts | 103° |
| 2026-05-04 07:09 | 28.26894 | -176.24991 | 41355 ft | 510 kts | 103° |
| 2026-05-04 07:10 | 28.25248 | -176.17167 | 41352 ft | 510 kts | 103° |
| 2026-05-04 07:12 | 28.18622 | -175.85912 | 41348 ft | 510 kts | 103° |
| 2026-05-04 07:12 | 28.16950 | -175.78084 | 41349 ft | 510 kts | 103° |
| 2026-05-04 07:13 | 28.15276 | -175.70270 | 41350 ft | 510 kts | 103° |
| 2026-05-04 07:13 | 28.13599 | -175.62462 | 41349 ft | 510 kts | 103° |
| 2026-05-04 07:14 | 28.09382 | -175.42936 | 41346 ft | 510 kts | 103° |
| 2026-05-04 07:15 | 28.07688 | -175.35132 | 41347 ft | 510 kts | 103° |
| 2026-05-04 07:15 | 28.05989 | -175.27328 | 41347 ft | 510 kts | 103° |
| 2026-05-04 07:16 | 28.04297 | -175.19582 | 41346 ft | 510 kts | 103° |
| 2026-05-04 07:16 | 28.02590 | -175.11787 | 41347 ft | 510 kts | 103° |
| 2026-05-04 07:17 | 28.00867 | -175.04007 | 41347 ft | 510 kts | 105° |
| 2026-05-04 07:17 | 27.98050 | -174.96671 | 41334 ft | 509 kts | 121° |
| 2026-05-04 07:18 | 27.94316 | -174.89830 | 41346 ft | 511 kts | 124° |
| 2026-05-04 07:18 | 27.90438 | -174.83083 | 41346 ft | 512 kts | 124° |
| 2026-05-04 07:19 | 27.86546 | -174.76323 | 41344 ft | 512 kts | 124° |
| 2026-05-04 07:19 | 27.82674 | -174.69560 | 41344 ft | 512 kts | 124° |
| 2026-05-04 07:20 | 27.78809 | -174.62795 | 41344 ft | 512 kts | 124° |
| 2026-05-04 07:20 | 27.74943 | -174.56036 | 41343 ft | 513 kts | 124° |
| 2026-05-04 07:22 | 27.59426 | -174.29025 | 41335 ft | 514 kts | 124° |
| 2026-05-04 07:23 | 27.55548 | -174.22301 | 41335 ft | 515 kts | 124° |
| 2026-05-04 07:23 | 27.51637 | -174.15530 | 41336 ft | 515 kts | 124° |
| 2026-05-04 07:24 | 27.48325 | -174.09805 | 41336 ft | 515 kts | 124° |
| 2026-05-04 07:24 | 27.44410 | -174.03047 | 41333 ft | 515 kts | 124° |
| 2026-05-04 07:26 | 27.28757 | -173.76127 | 41330 ft | 515 kts | 125° |
| 2026-05-04 07:27 | 27.24822 | -173.69388 | 41330 ft | 515 kts | 125° |
| 2026-05-04 07:27 | 27.20884 | -173.62652 | 41325 ft | 515 kts | 125° |
| 2026-05-04 07:28 | 27.16940 | -173.55916 | 41325 ft | 515 kts | 125° |
| 2026-05-04 07:28 | 27.13001 | -173.49199 | 41325 ft | 515 kts | 125° |
| 2026-05-04 07:29 | 27.09057 | -173.42482 | 41327 ft | 515 kts | 125° |
| 2026-05-04 07:29 | 27.05127 | -173.35801 | 41325 ft | 516 kts | 125° |
| 2026-05-04 07:30 | 27.01177 | -173.29095 | 41308 ft | 516 kts | 125° |
| 2026-05-04 07:30 | 26.97213 | -173.22376 | 41323 ft | 515 kts | 126° |
| 2026-05-04 07:31 | 26.93244 | -173.15659 | 41321 ft | 515 kts | 126° |
| 2026-05-04 07:33 | 26.77371 | -172.88896 | 41320 ft | 516 kts | 126° |
| 2026-05-04 07:33 | 26.73417 | -172.82252 | 41316 ft | 516 kts | 126° |
| 2026-05-04 07:34 | 26.69437 | -172.75577 | 41313 ft | 516 kts | 126° |
| 2026-05-04 07:34 | 26.65428 | -172.68862 | 41307 ft | 516 kts | 126° |
| 2026-05-04 07:35 | 26.61469 | -172.62241 | 41309 ft | 515 kts | 126° |
| 2026-05-04 07:35 | 26.57474 | -172.55570 | 41309 ft | 515 kts | 126° |
| 2026-05-04 07:36 | 26.53487 | -172.48922 | 41306 ft | 515 kts | 126° |